Time;durP1;ratioP1;P1;durP2;ratioP2;P2;SDS_P1;SDS_P2;PMS_P1;PMS_P2;Temp;Humidity;BMP_temperature;BMP_pressure;BME280_temperature;BME280_humidity;BME280_pressure;Samples;Min_cycle;Max_cycle;Signal;HPM_P1;HPM_P2
2022/07/14 00:00:28;;;;;;;3.90;1.27;;;;;;;;;;5051176;28;20119;-68
2022/07/14 00:02:55;;;;;;;6.75;1.10;;;;;;;;;;5058373;28;20055;-68
2022/07/14 00:05:21;;;;;;;4.13;1.02;;;;;;;;;;5056138;28;20045;-70
2022/07/14 00:07:48;;;;;;;3.38;1.10;;;;;;;;;;5059791;28;20079;-68
2022/07/14 00:10:15;;;;;;;4.43;1.08;;;;;;;;;;5061298;28;20053;-68
2022/07/14 00:12:41;;;;;;;6.90;1.00;;;;;;;;;;5052744;28;20402;-68
2022/07/14 00:15:08;;;;;;;4.50;1.02;;;;;;;;;;5053706;28;20543;-68
2022/07/14 00:17:35;;;;;;;8.38;1.20;;;;;;;;;;5060700;28;20033;-68
2022/07/14 00:20:02;;;;;;;2.67;0.80;;;;;;;;;;5053112;28;20084;-68
2022/07/14 00:22:28;;;;;;;4.60;1.13;;;;;;;;;;5076128;28;20756;-68
2022/07/14 00:24:55;;;;;;;7.22;1.02;;;;;;;;;;5053080;28;20052;-68
2022/07/14 00:27:22;;;;;;;6.13;1.10;;;;;;;;;;5052464;28;20533;-68
2022/07/14 00:29:48;;;;;;;4.57;1.00;;;;;;;;;;5053392;28;20051;-68
2022/07/14 00:32:15;;;;;;;4.72;1.02;;;;;;;;;;5053212;28;20029;-68
2022/07/14 00:34:42;;;;;;;6.00;1.25;;;;;;;;;;5053184;28;20098;-68
2022/07/14 00:37:08;;;;;;;2.03;0.73;;;;;;;;;;5061623;28;20163;-68
2022/07/14 00:42:30;;;;;;;4.20;1.00;;;;;;;;;;5052595;28;20566;-68
2022/07/14 00:44:57;;;;;;;5.45;1.05;;;;;;;;;;5052405;28;20041;-68
2022/07/14 00:47:24;;;;;;;5.00;1.05;;;;;;;;;;5059617;28;20134;-68
2022/07/14 00:49:54;;;;;;;7.25;1.02;;;;;;;;;;5052725;28;20178;-68
2022/07/14 00:52:22;;;;;;;7.65;1.40;;;;;;;;;;5052256;28;20056;-67
2022/07/14 00:54:48;;;;;;;7.05;1.10;;;;;;;;;;5052886;28;20036;-67
2022/07/14 00:57:15;;;;;;;3.65;1.05;;;;;;;;;;5051982;28;20041;-68
2022/07/14 00:59:42;;;;;;;4.47;1.10;;;;;;;;;;5059894;28;20045;-68
2022/07/14 01:02:09;;;;;;;4.72;1.17;;;;;;;;;;5046829;28;20486;-68
2022/07/14 01:04:35;;;;;;;4.10;0.95;;;;;;;;;;5040964;28;20185;-68
2022/07/14 01:07:02;;;;;;;8.50;1.23;;;;;;;;;;5045712;28;20052;-68
2022/07/14 01:09:28;;;;;;;3.55;1.00;;;;;;;;;;5040708;28;20053;-68
2022/07/14 01:11:55;;;;;;;5.03;0.80;;;;;;;;;;5047575;28;20878;-68
2022/07/14 01:14:22;;;;;;;4.63;1.15;;;;;;;;;;5028026;28;20462;-68
2022/07/14 01:16:53;;;;;;;4.75;1.27;;;;;;;;;;5046148;28;20402;-67
2022/07/14 01:19:21;;;;;;;4.55;0.98;;;;;;;;;;5045462;28;20124;-67
2022/07/14 01:21:48;;;;;;;4.63;0.95;;;;;;;;;;5038893;28;20037;-67
2022/07/14 01:24:14;;;;;;;4.38;1.05;;;;;;;;;;5038974;28;20794;-68
2022/07/14 01:26:41;;;;;;;4.20;1.10;;;;;;;;;;5045977;28;20147;-68
2022/07/14 01:29:08;;;;;;;7.35;0.95;;;;;;;;;;5047088;28;20132;-68
2022/07/14 01:31:34;;;;;;;3.80;1.00;;;;;;;;;;5052666;28;20476;-68
2022/07/14 01:34:01;;;;;;;8.35;1.08;;;;;;;;;;5038138;28;20047;-68
2022/07/14 01:36:27;;;;;;;2.97;1.00;;;;;;;;;;5045548;28;20041;-68
2022/07/14 01:38:54;;;;;;;6.97;1.00;;;;;;;;;;5043399;28;20516;-68
2022/07/14 01:41:21;;;;;;;6.18;1.10;;;;;;;;;;5041748;28;20798;-68
2022/07/14 01:43:49;;;;;;;5.40;0.90;;;;;;;;;;5043818;28;20508;-68
2022/07/14 01:46:15;;;;;;;4.50;0.80;;;;;;;;;;5042201;28;20528;-67
2022/07/14 01:48:42;;;;;;;7.25;0.98;;;;;;;;;;5046810;28;20111;-68
2022/07/14 01:51:09;;;;;;;3.63;0.93;;;;;;;;;;5045345;28;20048;-69
2022/07/14 01:53:35;;;;;;;8.55;1.23;;;;;;;;;;5041200;28;20052;-68
2022/07/14 01:56:02;;;;;;;7.82;1.20;;;;;;;;;;5044337;28;20472;-68
2022/07/14 01:58:29;;;;;;;5.28;1.02;;;;;;;;;;5038273;28;20079;-68
2022/07/14 02:03:40;;;;;;;7.78;1.05;;;;;;;;;;5037786;28;20052;-68
2022/07/14 02:06:07;;;;;;;3.97;1.17;;;;;;;;;;5046634;28;20041;-69
2022/07/14 02:08:34;;;;;;;6.32;1.20;;;;;;;;;;5035879;28;20068;-68
2022/07/14 02:13:46;;;;;;;4.32;1.02;;;;;;;;;;5036123;28;20844;-68
2022/07/14 02:16:12;;;;;;;14.48;1.50;;;;;;;;;;5036901;28;20128;-65
2022/07/14 02:18:39;;;;;;;9.05;1.38;;;;;;;;;;5045613;28;20071;-65
2022/07/14 02:21:06;;;;;;;4.43;1.40;;;;;;;;;;5043692;28;20079;-65
2022/07/14 02:23:32;;;;;;;13.07;1.20;;;;;;;;;;5039989;28;20040;-65
2022/07/14 02:25:59;;;;;;;8.77;1.08;;;;;;;;;;5043863;28;20902;-65
2022/07/14 02:28:26;;;;;;;5.78;1.13;;;;;;;;;;5038016;28;20029;-65
2022/07/14 02:30:53;;;;;;;10.40;1.20;;;;;;;;;;5044077;28;20045;-68
2022/07/14 02:33:19;;;;;;;10.88;1.15;;;;;;;;;;5037395;28;20052;-67
2022/07/14 02:35:46;;;;;;;3.45;1.10;;;;;;;;;;5044427;28;20094;-67
2022/07/14 02:38:13;;;;;;;3.80;0.98;;;;;;;;;;5036986;28;20039;-68
2022/07/14 02:40:39;;;;;;;8.07;1.27;;;;;;;;;;5039451;28;20025;-67
2022/07/14 02:43:06;;;;;;;5.82;1.10;;;;;;;;;;5042026;28;20041;-67
2022/07/14 02:45:33;;;;;;;5.65;1.25;;;;;;;;;;5036323;28;20044;-67
2022/07/14 02:47:59;;;;;;;4.18;1.08;;;;;;;;;;5045526;28;20422;-67
2022/07/14 02:50:26;;;;;;;2.50;0.75;;;;;;;;;;5042671;28;20049;-67
2022/07/14 02:52:53;;;;;;;5.78;1.10;;;;;;;;;;5037023;28;20064;-67
2022/07/14 02:55:19;;;;;;;5.07;1.17;;;;;;;;;;5045759;28;20139;-67
2022/07/14 02:57:46;;;;;;;4.80;1.10;;;;;;;;;;5035879;28;20044;-67
2022/07/14 03:00:13;;;;;;;8.13;1.25;;;;;;;;;;5037039;28;20505;-67
2022/07/14 03:02:40;;;;;;;5.13;1.10;;;;;;;;;;5036094;28;20538;-67
2022/07/14 03:05:07;;;;;;;6.22;1.23;;;;;;;;;;5044753;28;20036;-66
2022/07/14 03:07:34;;;;;;;6.30;1.40;;;;;;;;;;5034669;28;20044;-66
2022/07/14 03:10:01;;;;;;;5.70;1.30;;;;;;;;;;5045075;28;20564;-66
2022/07/14 03:12:27;;;;;;;9.50;1.17;;;;;;;;;;5037952;28;20040;-67
2022/07/14 03:14:54;;;;;;;3.90;1.13;;;;;;;;;;5043160;28;20049;-66
2022/07/14 03:17:21;;;;;;;7.85;1.30;;;;;;;;;;5042428;28;20118;-66
2022/07/14 03:19:47;;;;;;;5.57;1.10;;;;;;;;;;5039806;28;20125;-65
2022/07/14 03:22:14;;;;;;;4.35;1.05;;;;;;;;;;5041858;28;20040;-68
2022/07/14 03:24:41;;;;;;;6.15;1.23;;;;;;;;;;5035897;28;20052;-69
2022/07/14 03:27:08;;;;;;;9.20;1.40;;;;;;;;;;5035693;28;20459;-65
2022/07/14 03:29:34;;;;;;;5.32;1.40;;;;;;;;;;5043012;28;20041;-64
2022/07/14 03:32:01;;;;;;;6.22;1.30;;;;;;;;;;5036247;28;20138;-67
2022/07/14 03:34:29;;;;;;;5.82;1.33;;;;;;;;;;5036986;28;20991;-67
2022/07/14 03:36:57;;;;;;;6.85;1.58;;;;;;;;;;5043775;28;20116;-67
2022/07/14 03:39:24;;;;;;;4.90;1.08;;;;;;;;;;5044827;28;20467;-66
2022/07/14 03:41:50;;;;;;;4.40;1.33;;;;;;;;;;5041040;28;20033;-67
2022/07/14 03:44:17;;;;;;;6.70;1.38;;;;;;;;;;5046668;28;20061;-67
2022/07/14 03:46:43;;;;;;;5.78;1.48;;;;;;;;;;5034160;28;20057;-67
2022/07/14 03:49:10;;;;;;;7.13;1.30;;;;;;;;;;5035614;28;20049;-66
2022/07/14 03:51:43;;;;;;;5.38;1.42;;;;;;;;;;5043381;28;20505;-67
2022/07/14 03:54:10;;;;;;;3.50;1.20;;;;;;;;;;5036725;28;20088;-67
2022/07/14 03:56:37;;;;;;;7.55;1.38;;;;;;;;;;5043182;28;20114;-66
2022/07/14 03:59:04;;;;;;;7.00;1.25;;;;;;;;;;5037549;28;20444;-66
2022/07/14 04:01:31;;;;;;;7.43;1.52;;;;;;;;;;5038089;28;20995;-67
2022/07/14 04:03:57;;;;;;;3.42;1.15;;;;;;;;;;5046461;28;20041;-66
2022/07/14 04:06:25;;;;;;;3.63;1.20;;;;;;;;;;5039063;28;20402;-66
2022/07/14 04:08:51;;;;;;;7.25;1.08;;;;;;;;;;5047278;28;20057;-66
2022/07/14 04:11:18;;;;;;;4.18;1.13;;;;;;;;;;5038800;28;20135;-67
2022/07/14 04:13:45;;;;;;;6.70;1.38;;;;;;;;;;5046256;28;20037;-66
2022/07/14 04:16:12;;;;;;;5.82;1.48;;;;;;;;;;5060221;28;20044;-67
2022/07/14 04:18:39;;;;;;;4.55;1.38;;;;;;;;;;5041631;28;20037;-66
2022/07/14 04:21:08;;;;;;;5.15;1.50;;;;;;;;;;5045255;28;20049;-68
2022/07/14 04:23:35;;;;;;;8.50;1.55;;;;;;;;;;5037519;28;20037;-68
2022/07/14 04:26:03;;;;;;;4.50;1.48;;;;;;;;;;5046555;28;20049;-66
2022/07/14 04:28:30;;;;;;;5.10;1.50;;;;;;;;;;5045470;28;20165;-66
2022/07/14 04:30:57;;;;;;;6.38;1.45;;;;;;;;;;5038995;28;20929;-66
2022/07/14 04:33:24;;;;;;;9.50;1.63;;;;;;;;;;5045983;28;20037;-67
2022/07/14 04:35:51;;;;;;;4.25;1.40;;;;;;;;;;5039699;28;20045;-67
2022/07/14 04:38:18;;;;;;;5.03;1.45;;;;;;;;;;5042607;28;20140;-66
2022/07/14 04:40:52;;;;;;;6.97;1.45;;;;;;;;;;5044063;28;20048;-67
2022/07/14 04:43:18;;;;;;;5.43;1.30;;;;;;;;;;5046404;28;20045;-68
2022/07/14 04:45:45;;;;;;;5.20;1.30;;;;;;;;;;5044600;28;20028;-67
2022/07/14 04:48:12;;;;;;;8.10;1.83;;;;;;;;;;5046837;28;20071;-67
2022/07/14 04:53:24;;;;;;;5.50;1.83;;;;;;;;;;5048054;28;20079;-67
2022/07/14 04:55:51;;;;;;;5.05;1.60;;;;;;;;;;5045301;28;20064;-66
2022/07/14 04:58:18;;;;;;;8.15;1.48;;;;;;;;;;5043277;28;20033;-66
2022/07/14 05:00:45;;;;;;;4.05;1.63;;;;;;;;;;5048526;28;20048;-68
2022/07/14 05:03:11;;;;;;;4.32;1.52;;;;;;;;;;5046705;28;20040;-67
2022/07/14 05:05:40;;;;;;;5.57;1.20;;;;;;;;;;5041581;28;20037;-67
2022/07/14 05:08:06;;;;;;;3.80;1.38;;;;;;;;;;5043002;28;20037;-67
2022/07/14 05:10:33;;;;;;;5.63;1.50;;;;;;;;;;5050215;28;20049;-67
2022/07/14 05:12:59;;;;;;;4.57;1.95;;;;;;;;;;5043015;28;20041;-69
2022/07/14 05:15:26;;;;;;;6.50;3.13;;;;;;;;;;5041814;28;20051;-63
2022/07/14 05:17:53;;;;;;;7.25;1.30;;;;;;;;;;5042045;28;20048;-68
2022/07/14 05:20:19;;;;;;;5.10;1.50;;;;;;;;;;5050553;28;20464;-68
2022/07/14 05:22:46;;;;;;;5.05;1.60;;;;;;;;;;5041558;28;20555;-67
2022/07/14 05:25:13;;;;;;;4.18;1.38;;;;;;;;;;5044266;28;20485;-68
2022/07/14 05:27:41;;;;;;;7.75;1.65;;;;;;;;;;5048356;28;20085;-67
2022/07/14 05:30:08;;;;;;;4.28;1.30;;;;;;;;;;5043613;28;20053;-68
2022/07/14 05:32:35;;;;;;;9.80;1.52;;;;;;;;;;5042126;28;20029;-68
2022/07/14 05:35:03;;;;;;;4.60;1.70;;;;;;;;;;5050063;28;20053;-67
2022/07/14 05:37:29;;;;;;;4.60;1.73;;;;;;;;;;5041109;28;20079;-68
2022/07/14 05:39:56;;;;;;;4.53;1.52;;;;;;;;;;5050282;28;20075;-68
2022/07/14 05:42:23;;;;;;;4.28;1.70;;;;;;;;;;5049029;28;20585;-68
2022/07/14 05:44:50;;;;;;;4.20;1.45;;;;;;;;;;5045421;28;20500;-67
2022/07/14 05:47:17;;;;;;;5.55;1.27;;;;;;;;;;5044557;28;20112;-67
2022/07/14 05:49:44;;;;;;;4.82;1.40;;;;;;;;;;5049525;28;20480;-68
2022/07/14 05:52:14;;;;;;;6.43;1.52;;;;;;;;;;5050501;28;20057;-67
2022/07/14 05:54:42;;;;;;;7.43;1.48;;;;;;;;;;5044127;28;20044;-66
2022/07/14 05:57:13;;;;;;;6.75;1.52;;;;;;;;;;5046103;28;20041;-66
2022/07/14 05:59:40;;;;;;;7.47;1.55;;;;;;;;;;5050119;28;20041;-66
2022/07/14 06:02:07;;;;;;;6.53;1.30;;;;;;;;;;5047685;28;20915;-66
2022/07/14 06:04:34;;;;;;;4.03;1.30;;;;;;;;;;5044598;28;20505;-68
2022/07/14 06:07:00;;;;;;;3.75;1.13;;;;;;;;;;5046435;28;20045;-67
2022/07/14 06:09:27;;;;;;;4.28;1.50;;;;;;;;;;5047520;28;20055;-66
2022/07/14 06:11:54;;;;;;;6.15;1.77;;;;;;;;;;5039500;28;20069;-66
2022/07/14 06:14:21;;;;;;;6.05;1.60;;;;;;;;;;5038457;28;20505;-67
2022/07/14 06:16:47;;;;;;;3.65;1.25;;;;;;;;;;5048274;28;20666;-67
2022/07/14 06:19:14;;;;;;;5.18;1.40;;;;;;;;;;5049853;28;20033;-67
2022/07/14 06:21:41;;;;;;;5.15;1.60;;;;;;;;;;5044016;28;20056;-67
2022/07/14 06:24:08;;;;;;;5.70;1.50;;;;;;;;;;5046711;28;20161;-68
2022/07/14 06:26:35;;;;;;;5.47;1.50;;;;;;;;;;5047573;28;20033;-67
2022/07/14 06:29:01;;;;;;;5.43;1.30;;;;;;;;;;5039011;28;20056;-68
2022/07/14 06:31:29;;;;;;;3.28;1.20;;;;;;;;;;5047580;28;20056;-68
2022/07/14 06:33:55;;;;;;;7.03;1.35;;;;;;;;;;5039865;28;20048;-67
2022/07/14 06:36:22;;;;;;;3.88;1.20;;;;;;;;;;5046477;28;20041;-67
2022/07/14 06:38:49;;;;;;;8.05;1.40;;;;;;;;;;5039121;28;20060;-68
2022/07/14 06:41:15;;;;;;;4.70;1.38;;;;;;;;;;5039482;28;20052;-68
2022/07/14 06:43:42;;;;;;;5.05;1.30;;;;;;;;;;5045843;28;20094;-67
2022/07/14 06:46:14;;;;;;;3.90;1.33;;;;;;;;;;5046319;28;20041;-67
2022/07/14 06:48:41;;;;;;;3.78;1.30;;;;;;;;;;5040943;28;21194;-67
2022/07/14 06:51:07;;;;;;;6.53;1.48;;;;;;;;;;5043822;28;20041;-68
2022/07/14 06:53:34;;;;;;;6.95;1.60;;;;;;;;;;5037401;28;20060;-68
2022/07/14 06:56:01;;;;;;;4.45;1.20;;;;;;;;;;5045590;28;20167;-68
2022/07/14 06:58:27;;;;;;;6.85;1.60;;;;;;;;;;5036522;28;20087;-68
2022/07/14 07:00:54;;;;;;;3.15;1.00;;;;;;;;;;5049753;28;20123;-68
2022/07/14 07:03:21;;;;;;;4.03;1.08;;;;;;;;;;5039959;28;20037;-68
2022/07/14 07:08:33;;;;;;;6.28;1.40;;;;;;;;;;5039338;28;20563;-68
2022/07/14 07:10:59;;;;;;;6.45;1.48;;;;;;;;;;5044571;28;20049;-68
2022/07/14 07:13:29;;;;;;;6.53;1.30;;;;;;;;;;5036387;28;20749;-68
2022/07/14 07:15:56;;;;;;;8.95;1.90;;;;;;;;;;5046365;28;20044;-68
2022/07/14 07:18:23;;;;;;;5.20;1.45;;;;;;;;;;5037538;28;20041;-68
2022/07/14 07:20:49;;;;;;;6.30;1.30;;;;;;;;;;5037109;28;20028;-68
2022/07/14 07:23:16;;;;;;;5.38;1.40;;;;;;;;;;5046600;28;20401;-67
2022/07/14 07:25:43;;;;;;;4.30;1.48;;;;;;;;;;5043841;28;20044;-67
2022/07/14 07:28:09;;;;;;;5.20;1.38;;;;;;;;;;5037413;28;20040;-67
2022/07/14 07:30:36;;;;;;;9.55;1.80;;;;;;;;;;5038950;28;20052;-67
2022/07/14 07:33:03;;;;;;;5.70;1.30;;;;;;;;;;5043648;28;20049;-67
2022/07/14 07:35:29;;;;;;;6.38;1.40;;;;;;;;;;5044540;28;20045;-67
2022/07/14 07:37:56;;;;;;;3.25;1.27;;;;;;;;;;5037178;28;20052;-67
2022/07/14 07:40:23;;;;;;;4.15;1.20;;;;;;;;;;5045365;28;20033;-67
2022/07/14 07:42:49;;;;;;;6.00;1.50;;;;;;;;;;5045703;28;20036;-67
2022/07/14 07:45:16;;;;;;;7.93;1.35;;;;;;;;;;5038002;28;20044;-66
2022/07/14 07:47:43;;;;;;;4.78;1.40;;;;;;;;;;5044456;28;20080;-67
2022/07/14 07:50:10;;;;;;;6.05;1.40;;;;;;;;;;5037404;28;20882;-66
2022/07/14 07:52:38;;;;;;;3.95;1.40;;;;;;;;;;5044131;28;20036;-66
2022/07/14 07:55:10;;;;;;;5.00;1.58;;;;;;;;;;5038108;28;20036;-67
2022/07/14 07:57:37;;;;;;;5.57;1.50;;;;;;;;;;5036226;28;21851;-67
2022/07/14 08:00:07;;;;;;;6.47;1.35;;;;;;;;;;5047154;28;20052;-66
2022/07/14 08:02:33;;;;;;;4.97;1.30;;;;;;;;;;5037957;28;20037;-66
2022/07/14 08:05:00;;;;;;;5.13;1.27;;;;;;;;;;5043686;28;20103;-66
2022/07/14 08:07:27;;;;;;;5.63;1.50;;;;;;;;;;5043960;28;20276;-66
2022/07/14 08:09:53;;;;;;;4.43;1.30;;;;;;;;;;5042164;28;20051;-66
2022/07/14 08:12:20;;;;;;;4.25;1.40;;;;;;;;;;5044808;28;20040;-66
2022/07/14 08:14:51;;;;;;;5.13;1.48;;;;;;;;;;5044576;28;20566;-67
2022/07/14 08:17:19;;;;;;;3.95;1.52;;;;;;;;;;5052619;28;20032;-67
2022/07/14 08:19:50;;;;;;;4.00;1.40;;;;;;;;;;5041910;28;20037;-66
2022/07/14 08:22:26;;;;;;;3.28;1.10;;;;;;;;;;5049526;28;20147;-66
2022/07/14 08:24:53;;;;;;;5.13;1.67;;;;;;;;;;5040887;28;20074;-67
2022/07/14 08:27:20;;;;;;;6.07;1.70;;;;;;;;;;5040889;28;20862;-67
2022/07/14 08:29:47;;;;;;;6.35;1.45;;;;;;;;;;5053675;28;20048;-67
2022/07/14 08:32:14;;;;;;;3.83;1.27;;;;;;;;;;5061795;28;20087;-67
2022/07/14 08:34:40;;;;;;;4.40;1.50;;;;;;;;;;5061114;28;20123;-67
2022/07/14 08:37:07;;;;;;;7.68;1.42;;;;;;;;;;5061261;28;20042;-67
2022/07/14 08:39:34;;;;;;;7.15;1.58;;;;;;;;;;5061068;28;20041;-67
2022/07/14 08:42:01;;;;;;;3.88;1.33;;;;;;;;;;5061124;28;20776;-67
2022/07/14 08:44:28;;;;;;;4.40;1.25;;;;;;;;;;5061659;28;20040;-66
2022/07/14 08:46:56;;;;;;;3.75;1.35;;;;;;;;;;5062856;28;20218;-66
2022/07/14 08:49:23;;;;;;;6.20;1.38;;;;;;;;;;5061488;28;20087;-66
2022/07/14 08:51:50;;;;;;;9.20;1.48;;;;;;;;;;5061086;28;20124;-66
2022/07/14 08:54:17;;;;;;;10.77;1.40;;;;;;;;;;5061408;28;20048;-66
2022/07/14 08:56:44;;;;;;;9.40;1.60;;;;;;;;;;5073252;28;20529;-66
2022/07/14 08:59:11;;;;;;;3.40;1.30;;;;;;;;;;5061011;28;20540;-66
2022/07/14 09:01:38;;;;;;;5.43;1.67;;;;;;;;;;5045017;28;20044;-66
2022/07/14 09:04:08;;;;;;;3.78;1.23;;;;;;;;;;5044446;28;20045;-66
2022/07/14 09:06:43;;;;;;;6.07;1.70;;;;;;;;;;5044877;28;20047;-66
2022/07/14 09:09:10;;;;;;;6.80;1.60;;;;;;;;;;5047161;28;20074;-66
2022/07/14 09:11:36;;;;;;;6.30;1.70;;;;;;;;;;5045547;28;20114;-66
2022/07/14 09:14:10;;;;;;;5.60;1.60;;;;;;;;;;5045602;28;20045;-66
2022/07/14 09:16:36;;;;;;;;;;;;;;;;;;5044101;28;20044;-64
2022/07/14 09:19:07;;;;;;;5.57;1.52;;;;;;;;;;5044904;28;19921;-66
2022/07/14 09:21:44;;;;;;;7.32;1.63;;;;;;;;;;5044184;28;20037;-65
2022/07/14 09:24:11;;;;;;;4.80;1.50;;;;;;;;;;5045803;28;20045;-65
2022/07/14 09:26:48;;;;;;;4.88;1.40;;;;;;;;;;5027311;28;20119;-65
2022/07/14 09:29:23;;;;;;;4.65;1.70;;;;;;;;;;5046081;28;20230;-66
2022/07/14 09:31:50;;;;;;;7.97;1.50;;;;;;;;;;5043177;28;20033;-66
2022/07/14 09:34:31;;;;;;;4.32;1.60;;;;;;;;;;5028657;28;20123;-66
2022/07/14 09:37:17;;;;;;;5.05;1.65;;;;;;;;;;5044675;28;20154;-67
2022/07/14 09:39:54;;;;;;;4.85;1.70;;;;;;;;;;5048400;28;20039;-65
2022/07/14 09:42:21;;;;;;;4.18;1.60;;;;;;;;;;5069443;28;20055;-67
2022/07/14 09:44:50;;;;;;;5.38;1.65;;;;;;;;;;5058312;28;20048;-65
2022/07/14 09:47:17;;;;;;;4.38;1.85;;;;;;;;;;5057895;28;20381;-64
2022/07/14 09:49:44;;;;;;;6.10;1.83;;;;;;;;;;5057637;28;20503;-66
2022/07/14 09:52:11;;;;;;;4.53;2.00;;;;;;;;;;5059197;28;20371;-65
2022/07/14 09:54:38;;;;;;;5.60;1.70;;;;;;;;;;5058124;28;20059;-67
2022/07/14 09:57:14;;;;;;;6.35;1.83;;;;;;;;;;5057451;28;20044;-65
2022/07/14 10:00:12;;;;;;;5.10;1.75;;;;;;;;;;5059718;28;20044;-67
2022/07/14 10:02:40;;;;;;;6.88;1.95;;;;;;;;;;5059788;28;20041;-66
2022/07/14 10:05:08;;;;;;;3.95;1.70;;;;;;;;;;5058871;28;20045;-66
2022/07/14 10:07:38;;;;;;;6.65;1.73;;;;;;;;;;5056618;28;20028;-65
2022/07/14 10:10:09;;;;;;;9.85;1.90;;;;;;;;;;5059979;28;20053;-65
2022/07/14 10:12:37;;;;;;;4.50;1.67;;;;;;;;;;5075287;28;20122;-64
2022/07/14 10:15:05;;;;;;;4.43;1.85;;;;;;;;;;5061157;28;20075;-65
2022/07/14 10:17:32;;;;;;;5.68;1.50;;;;;;;;;;5059005;28;20379;-64
2022/07/14 10:20:00;;;;;;;4.40;1.80;;;;;;;;;;5070574;28;20053;-65
2022/07/14 10:22:33;;;;;;;5.68;1.65;;;;;;;;;;5041322;28;20052;-66
2022/07/14 10:24:59;;;;;;;;;;;;;;;;;;5048994;28;20041;-66
2022/07/14 10:27:27;;;;;;;4.03;1.83;;;;;;;;;;5047054;28;19920;-66
2022/07/14 10:29:57;;;;;;;4.85;1.75;;;;;;;;;;5039954;28;20234;-65
2022/07/14 10:32:24;;;;;;;4.60;1.88;;;;;;;;;;5038972;28;20049;-65
2022/07/14 10:34:54;;;;;;;5.28;1.77;;;;;;;;;;5047448;28;20045;-65
2022/07/14 10:37:30;;;;;;;8.13;2.10;;;;;;;;;;5039003;28;20033;-65
2022/07/14 10:40:08;;;;;;;5.30;1.70;;;;;;;;;;5041322;28;20045;-65
2022/07/14 10:42:41;;;;;;;5.47;2.30;;;;;;;;;;5045462;28;20159;-65
2022/07/14 10:45:11;;;;;;;4.78;2.10;;;;;;;;;;5038349;28;20043;-65
2022/07/14 10:47:47;;;;;;;5.97;2.17;;;;;;;;;;5039199;28;20055;-66
2022/07/14 10:50:18;;;;;;;6.43;1.95;;;;;;;;;;5039880;28;20045;-66
2022/07/14 10:53:05;;;;;;;6.75;1.90;;;;;;;;;;5045360;28;21703;-65
2022/07/14 10:55:32;;;;;;;4.68;2.08;;;;;;;;;;5045185;28;20102;-65
2022/07/14 10:58:06;;;;;;;4.30;1.90;;;;;;;;;;5037929;28;20045;-65
2022/07/14 11:00:47;;;;;;;5.68;2.30;;;;;;;;;;5038458;28;20041;-66
2022/07/14 11:03:25;;;;;;;8.95;2.30;;;;;;;;;;5037486;28;20048;-67
2022/07/14 11:06:08;;;;;;;5.70;2.40;;;;;;;;;;5037848;28;20047;-64
2022/07/14 11:08:39;;;;;;;6.35;2.30;;;;;;;;;;5044555;28;20041;-65
2022/07/14 11:11:10;;;;;;;4.28;1.77;;;;;;;;;;5039291;28;20559;-66
2022/07/14 11:13:56;;;;;;;5.60;2.25;;;;;;;;;;5046665;28;20122;-66
2022/07/14 11:16:43;;;;;;;6.75;2.17;;;;;;;;;;5035428;28;20049;-66
2022/07/14 11:19:22;;;;;;;10.65;2.13;;;;;;;;;;5044162;28;20040;-66
2022/07/14 11:22:07;;;;;;;9.77;2.63;;;;;;;;;;5054157;28;20566;-64
2022/07/14 11:24:34;;;;;;;8.38;2.40;;;;;;;;;;5039287;28;20037;-65
2022/07/14 11:27:21;;;;;;;9.07;2.53;;;;;;;;;;5035110;28;20033;-65
2022/07/14 11:29:48;;;;;;;6.00;2.10;;;;;;;;;;5041384;28;20052;-65
2022/07/14 11:32:34;;;;;;;8.45;1.83;;;;;;;;;;5048837;28;20412;-64
2022/07/14 11:37:58;;;;;;;8.50;2.50;;;;;;;;;;5036504;28;20706;-65
2022/07/14 11:40:44;;;;;;;4.88;1.98;;;;;;;;;;5036859;28;21014;-65
2022/07/14 11:43:29;;;;;;;9.63;2.92;;;;;;;;;;5042667;28;20036;-64
2022/07/14 11:45:58;;;;;;;6.20;2.90;;;;;;;;;;5040492;28;20047;-65
2022/07/14 11:48:29;;;;;;;6.05;2.88;;;;;;;;;;5037846;28;20041;-63
2022/07/14 11:51:22;;;;;;;9.05;2.72;;;;;;;;;;5041578;28;20493;-65
2022/07/14 11:54:09;;;;;;;5.50;2.78;;;;;;;;;;5043262;28;20167;-66
2022/07/14 11:56:35;;;;;;;6.10;2.75;;;;;;;;;;5047189;28;20118;-66
2022/07/14 11:59:05;;;;;;;7.65;2.67;;;;;;;;;;5043605;28;20041;-64
2022/07/14 12:01:36;;;;;;;6.70;2.60;;;;;;;;;;5035681;28;20057;-66
2022/07/14 12:04:07;;;;;;;10.25;2.97;;;;;;;;;;5041374;28;20135;-63
2022/07/14 12:06:33;;;;;;;10.88;2.97;;;;;;;;;;5044942;28;20036;-65
2022/07/14 12:09:00;;;;;;;5.90;2.65;;;;;;;;;;5044141;28;20052;-66
2022/07/14 12:11:27;;;;;;;7.93;3.03;;;;;;;;;;5037452;28;20506;-66
2022/07/14 12:13:54;;;;;;;9.15;3.25;;;;;;;;;;5037881;28;20037;-65
2022/07/14 12:16:21;;;;;;;8.20;3.20;;;;;;;;;;5037843;28;20449;-65
2022/07/14 12:18:51;;;;;;;6.85;3.22;;;;;;;;;;5045560;28;20036;-66
2022/07/14 12:21:18;;;;;;;6.78;2.75;;;;;;;;;;5041715;28;20052;-66
2022/07/14 12:23:51;;;;;;;10.95;2.90;;;;;;;;;;5045096;28;20398;-67
2022/07/14 12:26:19;;;;;;;7.10;3.10;;;;;;;;;;5031886;28;20098;-66
2022/07/14 12:28:50;;;;;;;14.50;3.65;;;;;;;;;;5041198;28;20033;-66
2022/07/14 12:31:19;;;;;;;5.63;2.65;;;;;;;;;;5036964;28;20056;-63
2022/07/14 12:33:46;;;;;;;7.82;3.20;;;;;;;;;;5039510;28;20083;-65
2022/07/14 12:36:17;;;;;;;9.38;3.00;;;;;;;;;;5041425;28;20778;-66
2022/07/14 12:38:43;;;;;;;6.28;2.95;;;;;;;;;;5037340;28;20037;-66
2022/07/14 12:41:10;;;;;;;10.40;2.83;;;;;;;;;;5035408;28;20324;-64
2022/07/14 12:43:39;;;;;;;9.13;2.78;;;;;;;;;;5041791;28;20939;-64
2022/07/14 12:46:32;;;;;;;8.40;3.20;;;;;;;;;;5045341;28;20033;-63
2022/07/14 12:49:06;;;;;;;10.63;3.15;;;;;;;;;;5040128;28;20433;-65
2022/07/14 12:51:39;;;;;;;7.65;2.30;;;;;;;;;;5040881;28;20045;-66
2022/07/14 12:54:19;;;;;;;7.18;2.15;;;;;;;;;;5041798;28;20092;-66
2022/07/14 12:56:46;;;;;;;4.95;2.00;;;;;;;;;;5046469;28;20037;-66
2022/07/14 12:59:17;;;;;;;10.68;2.10;;;;;;;;;;5038832;28;20504;-64
2022/07/14 13:01:50;;;;;;;4.32;1.80;;;;;;;;;;5047001;28;20155;-68
2022/07/14 13:04:35;;;;;;;9.15;2.00;;;;;;;;;;5049304;28;20040;-66
2022/07/14 13:07:24;;;;;;;4.22;1.73;;;;;;;;;;5047152;28;20084;-66
2022/07/14 13:10:11;;;;;;;3.90;1.60;;;;;;;;;;5044779;28;20048;-66
2022/07/14 13:12:40;;;;;;;3.45;1.20;;;;;;;;;;5060219;28;20052;-65
2022/07/14 13:15:16;;;;;;;3.55;1.45;;;;;;;;;;5061448;28;20536;-66
2022/07/14 13:17:54;;;;;;;4.40;1.55;;;;;;;;;;5041829;28;20041;-66
2022/07/14 13:20:39;;;;;;;5.85;1.60;;;;;;;;;;5041317;28;20044;-66
2022/07/14 13:23:06;;;;;;;3.38;1.25;;;;;;;;;;5049407;28;20045;-66
2022/07/14 13:25:43;;;;;;;9.98;1.52;;;;;;;;;;5042346;28;20041;-66
2022/07/14 13:28:10;;;;;;;10.70;1.63;;;;;;;;;;5054713;28;20038;-65
2022/07/14 13:30:36;;;;;;;7.68;1.30;;;;;;;;;;5039367;28;20044;-62
2022/07/14 13:33:03;;;;;;;4.45;1.85;;;;;;;;;;5054470;28;20128;-60
2022/07/14 13:35:30;;;;;;;4.70;1.20;;;;;;;;;;5042156;28;20036;-67
2022/07/14 13:37:56;;;;;;;7.72;1.40;;;;;;;;;;5048049;28;20083;-65
2022/07/14 13:40:24;;;;;;;7.32;1.17;;;;;;;;;;5038903;28;20048;-67
2022/07/14 13:42:51;;;;;;;5.57;1.10;;;;;;;;;;5046694;28;20052;-67
2022/07/14 13:45:18;;;;;;;4.72;1.33;;;;;;;;;;5039843;28;20742;-66
2022/07/14 13:47:44;;;;;;;4.50;1.40;;;;;;;;;;5039360;28;20044;-66
2022/07/14 13:52:56;;;;;;;4.57;1.38;;;;;;;;;;5039494;28;20088;-62
2022/07/14 13:55:23;;;;;;;5.38;1.30;;;;;;;;;;5046942;28;20044;-66
2022/07/14 13:57:49;;;;;;;3.50;1.20;;;;;;;;;;5043767;28;20713;-66
2022/07/14 14:00:16;;;;;;;4.63;0.90;;;;;;;;;;5043869;28;20068;-66
2022/07/14 14:05:28;;;;;;;5.93;1.23;;;;;;;;;;5047633;28;20555;-67
2022/07/14 14:07:55;;;;;;;6.90;1.30;;;;;;;;;;5039837;28;20201;-66
2022/07/14 14:10:23;;;;;;;3.88;1.00;;;;;;;;;;5047239;28;20107;-66
2022/07/14 14:12:49;;;;;;;5.20;1.13;;;;;;;;;;5038244;28;20041;-66
2022/07/14 14:15:16;;;;;;;3.85;1.17;;;;;;;;;;5039876;28;21673;-66
2022/07/14 14:17:42;;;;;;;7.95;1.77;;;;;;;;;;5045999;28;20048;-66
2022/07/14 14:20:09;;;;;;;6.15;1.55;;;;;;;;;;5038144;28;20058;-66
2022/07/14 14:22:36;;;;;;;6.25;1.60;;;;;;;;;;5046872;28;20461;-65
2022/07/14 14:25:03;;;;;;;4.05;1.30;;;;;;;;;;5044759;28;20055;-68
2022/07/14 14:27:30;;;;;;;4.57;1.45;;;;;;;;;;5040698;28;20037;-67
2022/07/14 14:29:57;;;;;;;7.88;1.25;;;;;;;;;;5039415;28;20041;-65
2022/07/14 14:32:23;;;;;;;2.90;0.90;;;;;;;;;;5046135;28;20406;-65
2022/07/14 14:34:50;;;;;;;4.18;1.02;;;;;;;;;;5038211;28;20045;-63
2022/07/14 14:37:16;;;;;;;4.05;1.00;;;;;;;;;;5046039;28;20052;-64
2022/07/14 14:43:18;;;;;;;3.35;1.10;;;;;;;;;;5019169;28;20444;-61
2022/07/14 14:45:46;;;;;;;10.20;1.65;;;;;;;;;;4986280;28;20086;-66
2022/07/14 14:48:13;;;;;;;5.00;1.08;;;;;;;;;;4988127;28;20039;-65
2022/07/14 14:50:40;;;;;;;4.55;1.15;;;;;;;;;;4987965;28;20191;-65
2022/07/14 14:53:07;;;;;;;7.00;1.17;;;;;;;;;;4993622;28;20034;-65
2022/07/14 14:55:34;;;;;;;6.38;1.17;;;;;;;;;;4989467;28;20070;-65
2022/07/14 14:58:00;;;;;;;3.45;1.02;;;;;;;;;;4990717;28;20061;-64
2022/07/14 15:00:27;;;;;;;5.30;1.05;;;;;;;;;;4988066;28;20041;-65
2022/07/14 15:02:54;;;;;;;3.38;1.17;;;;;;;;;;4989313;28;20042;-66
2022/07/14 15:05:20;;;;;;;3.20;1.05;;;;;;;;;;4989553;28;20551;-65
2022/07/14 15:07:47;;;;;;;3.33;1.00;;;;;;;;;;4985988;28;20682;-65
2022/07/14 15:10:14;;;;;;;5.85;1.20;;;;;;;;;;5013325;28;20141;-65
2022/07/14 15:12:40;;;;;;;6.72;1.20;;;;;;;;;;4989921;28;20085;-67
2022/07/14 15:15:07;;;;;;;4.53;1.15;;;;;;;;;;5016896;28;20041;-65
2022/07/14 15:17:34;;;;;;;8.15;1.48;;;;;;;;;;4989934;28;20730;-64